createdAt,value
2016-03-14T00:00:44.401Z,-0.8
2016-03-14T00:02:00.454Z,-0.82
2016-03-14T00:02:41.376Z,-0.81
2016-03-14T00:03:41.284Z,-0.84
2016-03-14T00:04:42.662Z,-0.78
2016-03-14T00:06:56.464Z,-0.99
2016-03-14T00:07:56.452Z,-1.03
2016-03-14T00:09:03.364Z,-1.03
2016-03-14T00:10:09.210Z,-1.04
2016-03-14T00:10:56.491Z,-0.94
2016-03-14T00:12:15.809Z,-1.03
2016-03-14T00:12:56.544Z,-0.87
2016-03-14T00:13:56.561Z,-0.94
2016-03-14T00:15:09.286Z,-0.97
2016-03-14T00:16:09.132Z,-0.99
2016-03-14T00:16:56.569Z,-0.89
2016-03-14T00:17:56.620Z,-0.94
2016-03-14T00:18:56.669Z,-0.99
2016-03-14T00:19:56.578Z,-1.04
2016-03-14T00:21:09.380Z,-1
2016-03-14T00:21:56.615Z,-1.07
2016-03-14T00:23:09.370Z,-0.99
2016-03-14T00:23:57.245Z,-1.06
2016-03-14T00:25:15.859Z,-1.04
2016-03-14T00:25:59.737Z,-1.03
2016-03-14T00:26:59.740Z,-1.03
2016-03-14T00:27:59.774Z,-0.99
2016-03-14T00:28:59.761Z,-1.01
2016-03-14T00:30:00.420Z,-1
2016-03-14T00:30:59.782Z,-1.04
2016-03-14T00:32:12.534Z,-1.14
2016-03-14T00:32:59.834Z,-1.11
2016-03-14T00:34:25.509Z,-1.11
2016-03-14T00:35:12.589Z,-1.12
2016-03-14T00:36:31.359Z,-1.18
2016-03-14T00:37:19.079Z,-1.07
2016-03-14T00:37:59.848Z,-1.04
2016-03-14T00:39:31.194Z,-1.12
2016-03-14T00:39:59.884Z,-1.25
2016-03-14T00:40:59.918Z,-1.19
2016-03-14T00:42:06.171Z,-1.24
2016-03-14T00:43:12.767Z,-1.27
2016-03-14T00:43:59.958Z,-1.27
2016-03-14T00:45:25.600Z,-1.18
2016-03-14T00:45:59.963Z,-1.22
2016-03-14T00:47:00.028Z,-1.27
2016-03-14T00:48:19.171Z,-1.25
2016-03-14T00:49:00.596Z,-1.33
2016-03-14T00:50:25.677Z,-1.36
2016-03-14T00:51:12.741Z,-1.27
2016-03-14T00:52:00.023Z,-1.3
2016-03-14T00:53:19.247Z,-1.32
2016-03-14T00:54:06.328Z,-1.38
2016-03-14T00:55:25.737Z,-1.29
2016-03-14T00:56:09.630Z,-1.25
2016-03-14T00:57:09.743Z,-1.35
2016-03-14T00:58:11.109Z,-1.33
2016-03-14T00:59:22.461Z,-1.35
2016-03-14T01:00:23.049Z,-1.38
2016-03-14T01:01:28.879Z,-1.39
2016-03-14T01:02:09.953Z,-1.36
2016-03-14T01:03:35.394Z,-1.29
2016-03-14T01:04:19.255Z,-1.4
2016-03-14T01:05:19.274Z,-1.38
2016-03-14T01:06:32.027Z,-1.4
2016-03-14T01:07:19.357Z,-1.4
2016-03-14T01:09:16.316Z,-1.39
2016-03-14T01:09:28.956Z,-1.42
2016-03-14T01:10:28.913Z,-1.39
2016-03-14T01:11:48.118Z,-1.43
2016-03-14T01:12:28.902Z,-1.4
2016-03-14T01:13:28.921Z,-1.46
2016-03-14T01:14:28.782Z,-1.39
2016-03-14T01:15:48.129Z,-1.42
2016-03-14T01:16:28.959Z,-1.42
2016-03-14T01:17:28.993Z,-1.45
2016-03-14T01:18:28.966Z,-1.46
2016-03-14T01:19:28.999Z,-1.57
2016-03-14T01:20:29.267Z,-1.56
2016-03-14T01:21:41.738Z,-1.57
2016-03-14T01:22:41.773Z,-1.54
2016-03-14T01:24:38.575Z,-1.57
2016-03-14T01:25:58.015Z,-1.61
2016-03-14T01:26:44.876Z,-1.6
2016-03-14T01:27:38.473Z,-1.6
2016-03-14T01:28:51.367Z,-1.63
2016-03-14T01:29:38.635Z,-1.6
2016-03-14T01:30:38.717Z,-1.5
2016-03-14T01:31:38.640Z,-1.6
2016-03-14T01:32:51.534Z,-1.56
2016-03-14T01:33:44.927Z,-1.5
2016-03-14T01:34:38.695Z,-1.5
2016-03-14T01:35:51.401Z,-1.46
2016-03-14T01:36:38.685Z,-1.5
2016-03-14T01:37:57.891Z,-1.5
2016-03-14T01:38:40.128Z,-1.56
2016-03-14T01:39:38.725Z,-1.6
2016-03-14T01:40:38.743Z,-1.72
2016-03-14T01:41:38.777Z,-1.6
2016-03-14T01:42:38.749Z,-1.63
2016-03-14T01:43:45.047Z,-1.57
2016-03-14T01:44:38.754Z,-1.61
2016-03-14T01:45:38.882Z,-1.75
2016-03-14T01:46:39.602Z,-1.64
2016-03-14T01:47:38.808Z,-1.64
2016-03-14T01:48:51.561Z,-1.69
2016-03-14T01:49:40.282Z,-1.66
2016-03-14T01:50:38.848Z,-1.66
2016-03-14T01:51:38.866Z,-1.76
2016-03-14T01:52:38.853Z,-1.75
2016-03-14T01:53:38.856Z,-1.79
2016-03-14T01:54:45.170Z,-1.78
2016-03-14T01:55:38.909Z,-1.74
2016-03-14T01:56:38.911Z,-1.78
2016-03-14T01:57:51.648Z,-1.75
2016-03-14T01:58:38.917Z,-1.72
2016-03-14T01:59:58.200Z,-1.78
2016-03-14T02:00:51.781Z,-1.74
2016-03-14T02:01:38.971Z,-1.72
2016-03-14T02:03:04.836Z,-1.75
2016-03-14T02:03:38.961Z,-1.81
2016-03-14T02:05:55.779Z,-1.68
2016-03-14T02:06:55.766Z,-1.6
2016-03-14T02:07:55.784Z,-1.72
2016-03-14T02:08:55.756Z,-1.78
2016-03-14T02:10:08.558Z,-1.76
2016-03-14T02:11:08.530Z,-1.78
2016-03-14T02:11:55.858Z,-1.76
2016-03-14T02:12:55.829Z,-1.72
2016-03-14T02:14:15.116Z,-1.74
2016-03-14T02:14:59.006Z,-1.78
2016-03-14T02:15:59.024Z,-1.74
2016-03-14T02:17:11.764Z,-1.76
2016-03-14T02:17:59.046Z,-1.71
2016-03-14T02:18:59.032Z,-1.78
2016-03-14T02:19:59.051Z,-1.81
2016-03-14T02:20:59.163Z,-1.84
2016-03-14T02:21:59.681Z,-1.89
2016-03-14T02:22:59.074Z,-1.89
2016-03-14T02:24:00.514Z,-1.89
2016-03-14T02:24:59.268Z,-1.94
2016-03-14T02:26:00.520Z,-1.93
2016-03-14T02:27:11.870Z,-2.02
2016-03-14T02:27:59.135Z,-1.97
2016-03-14T02:29:24.812Z,-1.96
2016-03-14T02:30:08.674Z,-2
2016-03-14T02:31:21.426Z,-2.02
2016-03-14T02:32:14.992Z,-2.05
2016-03-14T02:33:08.760Z,-2
2016-03-14T02:34:27.935Z,-1.92
2016-03-14T02:35:08.812Z,-1.9
2016-03-14T02:36:08.753Z,-1.92
2016-03-14T02:37:08.787Z,-1.94
2016-03-14T02:38:08.758Z,-1.99
2016-03-14T02:39:08.792Z,-1.99
2016-03-14T02:40:21.717Z,-1.97
2016-03-14T02:41:21.532Z,-1.99
2016-03-14T02:42:08.830Z,-2.02
2016-03-14T02:43:28.006Z,-2
2016-03-14T02:44:08.727Z,-2.04
2016-03-14T02:45:08.824Z,-2.13
2016-03-14T02:46:18.389Z,-2.08
2016-03-14T02:47:18.438Z,-2.18
2016-03-14T02:48:18.761Z,-2.14
2016-03-14T02:49:18.409Z,-2.22
2016-03-14T02:50:18.429Z,-2.14
2016-03-14T02:51:18.403Z,-2.18
2016-03-14T02:52:18.425Z,-2.18
2016-03-14T02:53:18.419Z,-2.14
2016-03-14T02:54:18.512Z,-2.14
2016-03-14T02:55:24.665Z,-2.14
2016-03-14T02:56:18.461Z,-2.1
2016-03-14T02:57:24.944Z,-2.04
2016-03-14T02:58:18.474Z,-2.14
2016-03-14T02:59:37.662Z,-2.18
2016-03-14T03:00:24.711Z,-2.15
2016-03-14T03:01:18.447Z,-2.13
2016-03-14T03:02:18.495Z,-2.15
2016-03-14T03:03:24.731Z,-2.17
2016-03-14T03:04:18.670Z,-2.08
2016-03-14T03:05:18.468Z,-2.13
2016-03-14T03:06:24.767Z,-2.14
2016-03-14T03:07:18.505Z,-2.14
2016-03-14T03:08:37.710Z,-2.14
2016-03-14T03:09:18.619Z,-2.13
2016-03-14T03:10:49.840Z,-2.13
2016-03-14T03:11:31.374Z,-2.14
2016-03-14T03:12:18.563Z,-2.15
2016-03-14T03:13:37.880Z,-2.23
2016-03-14T03:14:18.804Z,-2.23
2016-03-14T03:16:21.246Z,-2.15
2016-03-14T03:16:33.809Z,-2.18
2016-03-14T03:17:33.828Z,-2.23
2016-03-14T03:18:33.830Z,-2.23
2016-03-14T03:19:46.599Z,-2.14
2016-03-14T03:20:33.867Z,-2.2
2016-03-14T03:21:33.885Z,-2.15
2016-03-14T03:22:33.919Z,-2.23
2016-03-14T03:23:33.890Z,-2.23
2016-03-14T03:24:46.628Z,-2.2
2016-03-14T03:25:33.771Z,-2.26
2016-03-14T03:26:33.914Z,-2.28
2016-03-14T03:27:46.651Z,-2.28
2016-03-14T03:28:33.919Z,-2.32
2016-03-14T03:29:53.203Z,-2.32
2016-03-14T03:30:33.956Z,-2.33
2016-03-14T03:31:33.975Z,-2.33
2016-03-14T03:32:44.259Z,-2.34
2016-03-14T03:33:43.667Z,-2.37
2016-03-14T03:34:43.623Z,-2.33
2016-03-14T03:35:43.689Z,-2.34
2016-03-14T03:36:43.692Z,-2.32
2016-03-14T03:37:43.710Z,-2.29
2016-03-14T03:38:43.666Z,-2.32
2016-03-14T03:39:49.949Z,-2.29
2016-03-14T03:40:49.952Z,-2.28
2016-03-14T03:41:43.689Z,-2.29
2016-03-14T03:43:02.911Z,-2.29
2016-03-14T03:43:43.710Z,-2.26
2016-03-14T03:45:15.027Z,-2.39
2016-03-14T03:45:53.293Z,-2.51
2016-03-14T03:46:53.265Z,-2.54
2016-03-14T03:47:53.267Z,-2.5
2016-03-14T03:48:53.896Z,-2.62
2016-03-14T03:49:53.288Z,-2.66
2016-03-14T03:50:53.291Z,-2.73
2016-03-14T03:51:53.997Z,-2.73
2016-03-14T03:52:53.922Z,-2.8
2016-03-14T03:53:53.346Z,-2.87
2016-03-14T03:54:54.787Z,-2.84
2016-03-14T03:55:53.351Z,-2.83
2016-03-14T03:56:53.354Z,-2.78
2016-03-14T03:57:53.372Z,-2.76
2016-03-14T03:59:06.112Z,-2.75
2016-03-14T03:59:53.394Z,-2.69
2016-03-14T04:02:02.945Z,-2.75
2016-03-14T04:03:22.216Z,-2.8
2016-03-14T04:04:15.703Z,-2.83
2016-03-14T04:05:22.269Z,-2.75
2016-03-14T04:06:29.163Z,-2.83
2016-03-14T04:07:28.805Z,-2.81
2016-03-14T04:08:12.668Z,-2.86
2016-03-14T04:10:09.689Z,-2.86
2016-03-14T04:10:41.689Z,-2.86
2016-03-14T04:11:22.489Z,-2.9
2016-03-14T04:12:48.225Z,-2.89
2016-03-14T04:13:32.181Z,-2.86
2016-03-14T04:14:57.590Z,-2.93
2016-03-14T04:15:47.796Z,-2.9
2016-03-14T04:17:07.130Z,-2.98
2016-03-14T04:17:41.474Z,-2.89
2016-03-14T04:19:56.697Z,-3.01
2016-03-14T04:20:56.762Z,-3.02
2016-03-14T04:21:56.734Z,-3.04
2016-03-14T04:22:56.893Z,-3.14
2016-03-14T04:24:03.005Z,-3.14
2016-03-14T04:25:09.557Z,-3.11
2016-03-14T04:26:16.045Z,-3.15
2016-03-14T04:27:26.266Z,-3.15
2016-03-14T04:28:37.629Z,-3.14
2016-03-14T04:29:24.881Z,-3.15
2016-03-14T04:30:44.149Z,-3.11
2016-03-14T04:31:53.730Z,-3.14
2016-03-14T04:33:03.311Z,-3.07
2016-03-14T04:33:47.454Z,-3.12
2016-03-14T04:34:47.285Z,-3.11
2016-03-14T04:36:00.069Z,-3.14
2016-03-14T04:37:44.261Z,-3.07
2016-03-14T04:38:28.280Z,-3.12
2016-03-14T04:39:28.173Z,-3.11
2016-03-14T04:40:29.661Z,-3.15
2016-03-14T04:41:40.944Z,-3.19
2016-03-14T04:42:41.025Z,-3.08
2016-03-14T04:44:25.250Z,-3.2
2016-03-14T04:44:57.031Z,-3.11
2016-03-14T04:46:28.333Z,-3.05
2016-03-14T04:47:06.569Z,-3.15
2016-03-14T04:49:09.246Z,-3.09
2016-03-14T04:49:21.918Z,-3.01
2016-03-14T04:50:22.062Z,-3.05
2016-03-14T04:51:23.377Z,-3.17
2016-03-14T04:52:28.287Z,-3.15
2016-03-14T04:53:34.710Z,-3.2
2016-03-14T04:54:41.260Z,-3.26
2016-03-14T04:55:34.638Z,-3.25
2016-03-14T04:56:53.359Z,-3.3
2016-03-14T04:57:37.346Z,-3.32
2016-03-14T04:58:37.271Z,-3.33
2016-03-14T04:59:50.086Z,-3.32
2016-03-14T05:00:49.995Z,-3.38
2016-03-14T05:01:56.529Z,-3.38
2016-03-14T05:02:53.173Z,-3.33
2016-03-14T05:04:06.303Z,-3.4
2016-03-14T05:04:40.694Z,-3.29
2016-03-14T05:06:13.183Z,-3.27
2016-03-14T05:06:57.699Z,-3.26
2016-03-14T05:07:44.967Z,-3.25
2016-03-14T05:09:54.629Z,-3.27
2016-03-14T05:10:54.678Z,-3.33
2016-03-14T05:11:54.838Z,-3.36
2016-03-14T05:13:00.933Z,-3.29
2016-03-14T05:14:01.186Z,-3.41
2016-03-14T05:15:07.474Z,-3.37
2016-03-14T05:16:13.913Z,-3.36
2016-03-14T05:16:54.710Z,-3.43
2016-03-14T05:18:20.981Z,-3.33
2016-03-14T05:18:59.262Z,-3.41
2016-03-14T05:21:01.862Z,-3.36
2016-03-14T05:21:40.099Z,-3.37
2016-03-14T05:22:14.445Z,-3.32
2016-03-14T05:23:45.760Z,-3.37
2016-03-14T05:24:24.012Z,-3.29
2016-03-14T05:25:55.359Z,-3.33
2016-03-14T05:26:27.143Z,-3.4
2016-03-14T05:27:27.146Z,-3.33
2016-03-14T05:28:27.179Z,-3.33
2016-03-14T05:29:27.182Z,-3.41
2016-03-14T05:30:40.059Z,-3.37
2016-03-14T05:31:42.828Z,-3.32
2016-03-14T05:32:46.425Z,-3.36
2016-03-14T05:33:52.990Z,-3.32
2016-03-14T05:34:53.539Z,-3.29
2016-03-14T05:35:52.917Z,-3.38
2016-03-14T05:37:02.530Z,-3.27
2016-03-14T05:38:12.129Z,-3.29
2016-03-14T05:38:56.051Z,-3.26
2016-03-14T05:40:05.725Z,-3.22
2016-03-14T05:41:05.728Z,-3.25
2016-03-14T05:43:08.314Z,-2.9
2016-03-14T05:43:40.299Z,-2.98
2016-03-14T05:45:37.272Z,-2.8
2016-03-14T05:45:56.085Z,-2.63
2016-03-14T05:47:27.465Z,-2.51
2016-03-14T05:48:06.296Z,-2.48
2016-03-14T05:50:02.690Z,-2.32
2016-03-14T05:50:15.301Z,-2.29
2016-03-14T05:52:17.901Z,-2.22
2016-03-14T05:52:56.198Z,-2.18
2016-03-14T05:53:30.466Z,-2.13
2016-03-14T05:55:02.031Z,-2.13
2016-03-14T05:56:11.662Z,-2.07
2016-03-14T05:56:45.974Z,-2.07
2016-03-14T05:59:01.385Z,-1.99
2016-03-14T06:00:01.231Z,-1.97
2016-03-14T06:01:01.453Z,-1.87
2016-03-14T06:02:01.222Z,-1.78
2016-03-14T06:03:01.193Z,-1.75
2016-03-14T06:04:01.305Z,-1.74
2016-03-14T06:05:01.230Z,-1.72
2016-03-14T06:06:01.315Z,-1.72
2016-03-14T06:07:01.240Z,-1.54
2016-03-14T06:08:13.964Z,-1.57
2016-03-14T06:09:07.717Z,-1.54
2016-03-14T06:10:20.454Z,-1.56
2016-03-14T06:11:01.282Z,-1.5
2016-03-14T06:12:26.959Z,-1.38
2016-03-14T06:13:20.494Z,-1.4
2016-03-14T06:14:35.668Z,-1.39
2016-03-14T06:15:04.386Z,-1.35
2016-03-14T06:17:19.644Z,-1.27
2016-03-14T06:18:19.896Z,-1.33
2016-03-14T06:19:32.369Z,-1.22
2016-03-14T06:20:32.356Z,-1.18
2016-03-14T06:22:16.642Z,-1.09
2016-03-14T06:22:42.017Z,-1.07
2016-03-14T06:24:20.398Z,-1.21
2016-03-14T06:24:45.960Z,-1.15
2016-03-14T06:25:45.807Z,-1.19
2016-03-14T06:26:45.981Z,-1.21
2016-03-14T06:27:45.859Z,-1.3
2016-03-14T06:28:58.533Z,-1.25
2016-03-14T06:29:45.848Z,-1.22
2016-03-14T06:31:42.807Z,-1.24
2016-03-14T06:31:55.417Z,-1.11
2016-03-14T06:33:08.172Z,-1.14
2016-03-14T06:33:55.422Z,-1.15
2016-03-14T06:35:14.724Z,-0.99
2016-03-14T06:37:01.242Z,-0.91
2016-03-14T06:37:36.230Z,-0.89
2016-03-14T06:38:29.951Z,-0.75
2016-03-14T06:39:42.719Z,-0.75
2016-03-14T06:40:29.988Z,-0.64
2016-03-14T06:41:49.193Z,-0.59
2016-03-14T06:42:30.041Z,-0.49
2016-03-14T06:43:49.230Z,-0.53
2016-03-14T06:44:30.014Z,-0.53
2016-03-14T06:46:27.019Z,-0.39
2016-03-14T06:46:39.613Z,-0.45
2016-03-14T06:47:58.818Z,-0.42
2016-03-14T06:48:42.727Z,-0.36
2016-03-14T06:49:42.730Z,-0.23
2016-03-14T06:50:43.452Z,-0.24
2016-03-14T06:53:18.428Z,-0.27
2016-03-14T06:54:12.243Z,-0.3
2016-03-14T06:55:27.434Z,-0.28
2016-03-14T06:56:02.418Z,-0.38
2016-03-14T06:56:56.156Z,-0.49
2016-03-14T06:58:15.364Z,-0.53
2016-03-14T06:59:02.536Z,-0.54
2016-03-14T07:00:27.542Z,-0.44
2016-03-14T07:01:06.042Z,-0.39
2016-03-14T07:02:37.265Z,-0.41
2016-03-14T07:03:06.031Z,-0.41
2016-03-14T07:04:06.206Z,-0.48
2016-03-14T07:05:12.570Z,-0.45
2016-03-14T07:06:06.398Z,-0.31
2016-03-14T07:07:06.105Z,-0.21
2016-03-14T07:08:12.579Z,-0.18
2016-03-14T07:09:06.095Z,0.06
2016-03-14T07:10:06.128Z,0.2
2016-03-14T07:11:19.008Z,0.16
2016-03-14T07:12:06.289Z,0.18
2016-03-14T07:13:06.230Z,0.26
2016-03-14T07:15:08.722Z,0.34
2016-03-14T07:15:46.691Z,0.59
2016-03-14T07:16:20.866Z,0.58
2016-03-14T07:17:52.180Z,0.73
2016-03-14T07:18:27.325Z,0.78
2016-03-14T07:19:20.936Z,0.89
2016-03-14T07:20:40.314Z,1.03
2016-03-14T07:21:21.473Z,1.14
2016-03-14T07:22:46.585Z,1.18
2016-03-14T07:23:29.978Z,1.13
2016-03-14T07:24:49.669Z,1.13
2016-03-14T07:25:59.218Z,1.21
2016-03-14T07:27:04.862Z,1.43
2016-03-14T07:28:02.411Z,1.43
2016-03-14T07:29:14.525Z,1.5
2016-03-14T07:30:11.997Z,1.36
2016-03-14T07:30:46.356Z,1.28
2016-03-14T07:31:46.312Z,1.5
2016-03-14T07:32:46.346Z,1.61
2016-03-14T07:35:02.164Z,1.97
2016-03-14T07:36:02.417Z,2.08
2016-03-14T07:37:08.517Z,2.1
2016-03-14T07:38:02.470Z,2.21
2016-03-14T07:39:14.989Z,2.3
2016-03-14T07:40:02.458Z,2.44
2016-03-14T07:41:02.274Z,2.34
2016-03-14T07:42:02.464Z,2.4
2016-03-14T07:43:02.264Z,2.36
2016-03-14T07:44:02.330Z,2.41
2016-03-14T07:45:08.585Z,2.4
2016-03-14T07:46:02.319Z,2.54
2016-03-14T07:47:21.543Z,2.4
2016-03-14T07:48:15.093Z,2.52
2016-03-14T07:49:33.924Z,2.59
2016-03-14T07:50:43.566Z,2.62
2016-03-14T07:51:17.835Z,2.83
2016-03-14T07:52:49.150Z,2.79
2016-03-14T07:53:30.591Z,2.9
2016-03-14T07:54:17.890Z,2.88
2016-03-14T07:55:30.627Z,2.95
2016-03-14T07:56:30.660Z,2.91
2016-03-14T07:57:17.992Z,2.88
2016-03-14T07:58:37.150Z,2.91
2016-03-14T07:59:18.763Z,2.98
2016-03-14T08:00:43.625Z,3.06
2016-03-14T08:01:27.487Z,3.18
2016-03-14T08:02:53.176Z,3.16
2016-03-14T08:03:28.929Z,3.11
2016-03-14T08:05:42.717Z,3.33
2016-03-14T08:06:42.903Z,3.53
2016-03-14T08:07:55.500Z,3.53
2016-03-14T08:08:49.643Z,3.46
2016-03-14T08:09:55.897Z,3.45
2016-03-14T08:10:43.086Z,3.4
2016-03-14T08:12:02.730Z,3.48
2016-03-14T08:13:02.029Z,3.59
2016-03-14T08:14:14.518Z,3.63
2016-03-14T08:15:08.537Z,3.66
2016-03-14T08:15:42.880Z,3.59
2016-03-14T08:17:43.121Z,3.43
2016-03-14T08:18:42.920Z,3.16
2016-03-14T08:19:56.438Z,2.73
2016-03-14T08:20:43.721Z,2.52
2016-03-14T08:22:02.381Z,2.64
2016-03-14T08:22:42.993Z,2.83
2016-03-14T08:24:08.686Z,3.29
2016-03-14T08:24:42.998Z,3.24
2016-03-14T08:26:14.332Z,3.58
2016-03-14T08:26:49.426Z,3.59
2016-03-14T08:27:43.070Z,3.61
2016-03-14T08:28:49.368Z,3.74
2016-03-14T08:29:43.309Z,3.95
2016-03-14T08:30:43.123Z,3.94
2016-03-14T08:31:49.658Z,3.89
2016-03-14T08:32:43.504Z,4
2016-03-14T08:33:55.867Z,3.89
2016-03-14T08:34:49.431Z,3.92
2016-03-14T08:36:09.125Z,3.78
2016-03-14T08:36:43.344Z,3.82
2016-03-14T08:37:43.205Z,3.86
2016-03-14T08:38:43.270Z,3.86
2016-03-14T08:39:43.273Z,3.89
2016-03-14T08:40:49.526Z,4.04
2016-03-14T08:41:55.998Z,4.04
2016-03-14T08:42:43.547Z,3.74
2016-03-14T08:44:02.550Z,4.02
2016-03-14T08:44:44.741Z,4.09
2016-03-14T08:46:02.571Z,4.3
2016-03-14T08:46:46.386Z,4.31
2016-03-14T08:48:45.969Z,3.49
2016-03-14T08:49:24.629Z,3.55
2016-03-14T08:49:59.597Z,3.56
2016-03-14T08:50:58.928Z,3.66
2016-03-14T08:51:59.540Z,3.37
2016-03-14T08:52:58.949Z,3.15
2016-03-14T08:54:11.813Z,3.16
2016-03-14T08:54:58.985Z,2.97
2016-03-14T08:56:24.194Z,3.01
2016-03-14T08:56:59.835Z,2.95
2016-03-14T08:58:31.324Z,2.73
2016-03-14T08:59:11.796Z,2.76
2016-03-14T08:59:59.093Z,2.79
2016-03-14T09:01:24.739Z,2.9
2016-03-14T09:02:11.835Z,2.82
2016-03-14T09:03:30.416Z,2.87
2016-03-14T09:03:59.150Z,2.91
2016-03-14T09:04:59.669Z,3.12
2016-03-14T09:06:24.815Z,3.15
2016-03-14T09:07:12.005Z,3.12
2016-03-14T09:08:31.023Z,3.26
2016-03-14T09:09:24.822Z,3.3
2016-03-14T09:10:11.872Z,3.24
2016-03-14T09:11:31.156Z,3.22
2016-03-14T09:12:21.315Z,3.24
2016-03-14T09:13:40.739Z,3.16
2016-03-14T09:14:27.852Z,3.22
2016-03-14T09:15:15.105Z,3.43
2016-03-14T09:16:40.794Z,3.63
2016-03-14T09:17:15.750Z,3.81
2016-03-14T09:19:17.756Z,4.06
2016-03-14T09:19:30.538Z,4.12
2016-03-14T09:20:30.633Z,4.04
2016-03-14T09:21:30.777Z,4.14
2016-03-14T09:22:30.576Z,4.28
2016-03-14T09:23:36.876Z,4.45
2016-03-14T09:24:43.456Z,4.4
2016-03-14T09:25:31.132Z,4.43
2016-03-14T09:26:30.649Z,4.61
2016-03-14T09:27:50.184Z,4.66
2016-03-14T09:28:30.686Z,4.76
2016-03-14T09:30:33.332Z,4.9
2016-03-14T09:30:46.114Z,4.86
2016-03-14T09:31:46.022Z,4.95
2016-03-14T09:32:58.995Z,4.87
2016-03-14T09:33:46.309Z,5.12
2016-03-14T09:35:11.798Z,5.12
2016-03-14T09:35:46.705Z,5.13
2016-03-14T09:37:12.398Z,5.22
2016-03-14T09:37:47.008Z,5.18
2016-03-14T09:38:46.120Z,5.13
2016-03-14T09:39:49.184Z,5.15
2016-03-14T09:40:46.156Z,5.02
2016-03-14T09:41:58.940Z,5.02
2016-03-14T09:42:58.959Z,5.15
2016-03-14T09:44:05.617Z,5.28
2016-03-14T09:44:49.745Z,5.31
2016-03-14T09:45:49.795Z,5.4
2016-03-14T09:46:49.547Z,5.4
2016-03-14T09:47:49.785Z,5.51
2016-03-14T09:48:49.599Z,5.47
2016-03-14T09:49:55.946Z,5.67
2016-03-14T09:50:49.714Z,5.65
2016-03-14T09:52:02.576Z,5.69
2016-03-14T09:52:49.689Z,5.44
2016-03-14T09:54:08.913Z,5.38
2016-03-14T09:54:54.147Z,5.28
2016-03-14T09:55:54.118Z,5.2
2016-03-14T09:57:06.887Z,5.12
2016-03-14T09:57:54.326Z,5.16
2016-03-14T09:59:13.957Z,5.16
2016-03-14T10:00:06.895Z,5.18
2016-03-14T10:01:00.413Z,5.26
2016-03-14T10:01:54.213Z,5.26
2016-03-14T10:03:07.028Z,5.2
2016-03-14T10:03:54.484Z,5.22
2016-03-14T10:05:20.411Z,5.44
2016-03-14T10:05:54.848Z,5.47
2016-03-14T10:07:25.550Z,5.67
2016-03-14T10:07:54.254Z,5.69
2016-03-14T10:08:54.320Z,5.62
2016-03-14T10:09:54.291Z,5.65
2016-03-14T10:11:00.872Z,5.9
2016-03-14T10:11:54.936Z,5.99
2016-03-14T10:12:54.330Z,6.06
2016-03-14T10:13:54.427Z,5.95
2016-03-14T10:14:54.617Z,6.01
2016-03-14T10:15:54.635Z,6.01
2016-03-14T10:16:54.591Z,6.06
2016-03-14T10:18:00.968Z,6.15
2016-03-14T10:18:55.034Z,6.16
2016-03-14T10:20:07.396Z,6.12
2016-03-14T10:20:54.492Z,6.15
2016-03-14T10:22:51.482Z,6.13
2016-03-14T10:23:07.420Z,6.12
2016-03-14T10:24:04.313Z,6.07
2016-03-14T10:25:04.300Z,6.09
2016-03-14T10:26:17.134Z,6.29
2016-03-14T10:27:04.946Z,6.52
2016-03-14T10:28:04.370Z,6.62
2016-03-14T10:29:17.360Z,6.74
2016-03-14T10:30:04.376Z,6.8
2016-03-14T10:31:23.803Z,6.92
2016-03-14T10:32:10.787Z,7.04
2016-03-14T10:33:04.447Z,7.03
2016-03-14T10:34:04.450Z,6.86
2016-03-14T10:35:04.906Z,6.5
2016-03-14T10:36:04.767Z,6.49
2016-03-14T10:37:04.519Z,6.53
2016-03-14T10:38:04.710Z,6.2
2016-03-14T10:39:04.713Z,6.22
2016-03-14T10:40:04.544Z,6.34
2016-03-14T10:41:04.983Z,6.41
2016-03-14T10:42:04.674Z,6.49
2016-03-14T10:43:04.849Z,6.62
2016-03-14T10:44:04.883Z,6.8
2016-03-14T10:45:04.838Z,6.92
2016-03-14T10:46:04.653Z,6.83
2016-03-14T10:47:17.377Z,6.82
2016-03-14T10:48:04.908Z,6.57
2016-03-14T10:49:24.149Z,6.44
2016-03-14T10:50:08.024Z,6.59
2016-03-14T10:51:08.526Z,6.72
2016-03-14T10:52:08.076Z,6.95
2016-03-14T10:53:09.500Z,7.01
2016-03-14T10:54:08.112Z,7.05
2016-03-14T10:55:28.008Z,7.15
2016-03-14T10:56:08.133Z,7.23
2016-03-14T10:57:08.402Z,7.21
2016-03-14T10:58:08.420Z,7.15
2016-03-14T10:59:08.798Z,7.4
2016-03-14T11:00:09.769Z,7.56
2016-03-14T11:01:20.947Z,7.81
2016-03-14T11:02:08.229Z,7.83
2016-03-14T11:03:08.262Z,7.96
2016-03-14T11:04:08.281Z,8.16
2016-03-14T11:05:08.284Z,8.34
2016-03-14T11:06:21.039Z,8.28
2016-03-14T11:07:08.929Z,8.27
2016-03-14T11:08:08.354Z,8.36
2016-03-14T11:09:08.388Z,8.35
2016-03-14T11:10:09.312Z,8.39
2016-03-14T11:11:09.190Z,8.36
2016-03-14T11:12:21.383Z,8.49
2016-03-14T11:13:09.851Z,8.45
2016-03-14T11:15:05.467Z,8.21
2016-03-14T11:15:49.720Z,7.84
2016-03-14T11:17:15.131Z,7.91
2016-03-14T11:18:02.709Z,8.16
2016-03-14T11:18:49.711Z,8.16
2016-03-14T11:19:53.214Z,8.38
2016-03-14T11:20:50.358Z,8.46
2016-03-14T11:22:02.708Z,8.74
2016-03-14T11:22:51.428Z,8.68
2016-03-14T11:23:51.040Z,8.75
2016-03-14T11:25:02.496Z,8.69
2016-03-14T11:25:49.858Z,8.78
2016-03-14T11:27:09.049Z,8.93
2016-03-14T11:27:49.894Z,8.89
2016-03-14T11:29:09.116Z,8.5
2016-03-14T11:29:49.713Z,8.44
2016-03-14T11:31:21.235Z,8.36
2016-03-14T11:32:05.453Z,8.36
2016-03-14T11:33:05.377Z,8.17
2016-03-14T11:34:06.380Z,8.49
2016-03-14T11:35:18.213Z,8.68
2016-03-14T11:36:05.338Z,8.82
2016-03-14T11:37:30.984Z,8.99
2016-03-14T11:38:05.312Z,9.12
2016-03-14T11:40:20.914Z,9.49
2016-03-14T11:41:21.183Z,9.74
2016-03-14T11:42:20.982Z,9.81
2016-03-14T11:43:21.000Z,9.91
2016-03-14T11:44:28.019Z,10.2
2016-03-14T11:45:21.459Z,10.42
2016-03-14T11:46:21.446Z,10.46
2016-03-14T11:47:28.839Z,10.75
2016-03-14T11:48:21.576Z,10.97
2016-03-14T11:50:37.895Z,10.98
2016-03-14T11:51:32.975Z,10.87
2016-03-14T11:52:31.369Z,10.97
2016-03-14T11:53:32.433Z,11.12
2016-03-14T11:54:44.617Z,11.3
2016-03-14T11:55:32.283Z,11.35
2016-03-14T11:56:57.353Z,10.86
2016-03-14T11:57:33.111Z,10.84
2016-03-14T11:58:31.579Z,10.98
2016-03-14T11:59:50.920Z,11
2016-03-14T12:00:38.387Z,10.77
2016-03-14T12:01:57.511Z,10.76
2016-03-14T12:02:51.417Z,10.61
2016-03-14T12:05:03.026Z,10.64
2016-03-14T12:05:31.605Z,10.33
2016-03-14T12:06:31.545Z,10.33
2016-03-14T12:07:44.390Z,10.51
2016-03-14T12:08:31.891Z,10.36
2016-03-14T12:09:51.112Z,10.48
2016-03-14T12:10:32.521Z,10.31
2016-03-14T12:11:57.586Z,10.55
2016-03-14T12:13:07.901Z,10.25
2016-03-14T12:13:42.621Z,10.3
2016-03-14T12:14:42.280Z,10.46
2016-03-14T12:15:41.798Z,10.72
2016-03-14T12:16:54.910Z,10.68
2016-03-14T12:17:42.350Z,10.86
2016-03-14T12:18:41.993Z,11.05
2016-03-14T12:19:48.464Z,11.26
2016-03-14T12:20:42.341Z,11.41
2016-03-14T12:22:01.329Z,11.4
2016-03-14T12:22:42.737Z,11.49
2016-03-14T12:24:13.647Z,11.83
2016-03-14T12:24:43.946Z,11.77
2016-03-14T12:25:42.527Z,11.65
2016-03-14T12:26:44.310Z,11.35
2016-03-14T12:27:42.970Z,11.07
2016-03-14T12:29:22.194Z,10.79
2016-03-14T12:29:42.413Z,10.75
2016-03-14T12:31:21.074Z,11.01
2016-03-14T12:31:56.356Z,11.02
2016-03-14T12:32:42.640Z,10.98
2016-03-14T12:34:58.614Z,10.75
2016-03-14T12:36:00.506Z,10.43
2016-03-14T12:37:17.700Z,10.24
2016-03-14T12:37:59.153Z,10.45
2016-03-14T12:38:58.922Z,10.59
2016-03-14T12:39:58.487Z,10.67
2016-03-14T12:41:02.099Z,10.79
2016-03-14T12:41:59.648Z,10.75
2016-03-14T12:43:12.198Z,10.77
2016-03-14T12:43:58.997Z,10.75
2016-03-14T12:44:59.500Z,10.94
2016-03-14T12:45:59.752Z,11.26
2016-03-14T12:47:00.427Z,11.2
2016-03-14T12:48:00.305Z,11.34
2016-03-14T12:48:59.104Z,11.55
2016-03-14T12:50:18.516Z,11.74
2016-03-14T12:51:21.488Z,11.56
2016-03-14T12:52:24.849Z,11.7
2016-03-14T12:53:30.713Z,11.62
2016-03-14T12:54:35.605Z,11.15
2016-03-14T12:55:15.621Z,10.76
2016-03-14T12:56:17.736Z,10.98
2016-03-14T12:57:15.924Z,11.16
2016-03-14T12:58:16.566Z,11.33
2016-03-14T12:59:18.712Z,11.35
2016-03-14T13:00:29.887Z,11.51
2016-03-14T13:01:17.199Z,11.44
2016-03-14T13:02:16.686Z,11.45
2016-03-14T13:03:16.548Z,11.44
2016-03-14T13:04:35.756Z,11.05
2016-03-14T13:05:17.447Z,10.83
2016-03-14T13:06:15.681Z,10.92
2016-03-14T13:07:35.749Z,10.95
2016-03-14T13:09:28.598Z,10.89
2016-03-14T13:10:17.301Z,10.86
2016-03-14T13:11:15.633Z,10.92
2016-03-14T13:12:34.997Z,10.71
2016-03-14T13:13:15.825Z,10.69
2016-03-14T13:14:15.797Z,10.67
2016-03-14T13:15:22.302Z,10.59
2016-03-14T13:17:25.839Z,10.61
2016-03-14T13:17:39.667Z,10.58
2016-03-14T13:18:40.279Z,10.69
2016-03-14T13:19:39.703Z,10.71
2016-03-14T13:20:41.112Z,10.42
2016-03-14T13:21:52.802Z,10.64
2016-03-14T13:22:58.774Z,10.57
2016-03-14T13:23:40.245Z,10.61
2016-03-14T13:25:05.249Z,10.42
2016-03-14T13:25:51.376Z,10.31
2016-03-14T13:27:04.957Z,10.46
2016-03-14T13:27:51.396Z,10.65
2016-03-14T13:28:51.275Z,10.75
2016-03-14T13:29:51.184Z,10.58
2016-03-14T13:30:57.701Z,10.39
2016-03-14T13:31:51.876Z,10.3
2016-03-14T13:33:10.551Z,10.39
2016-03-14T13:33:51.429Z,10.49
2016-03-14T13:35:17.198Z,10.13
2016-03-14T13:36:09.309Z,10.2
2016-03-14T13:37:09.359Z,9.92
2016-03-14T13:38:09.189Z,10.06
2016-03-14T13:39:09.129Z,10.42